createdAt,value
2018-09-12T00:01:36.046Z,1.40
2018-09-12T00:04:04.282Z,1.67
2018-09-12T00:08:51.830Z,1.57
2018-09-12T00:11:19.392Z,1.73
2018-09-12T00:13:46.996Z,1.47
2018-09-12T00:16:14.522Z,1.50
2018-09-12T00:18:42.178Z,1.90
2018-09-12T00:21:09.853Z,1.40
2018-09-12T00:23:37.395Z,1.90
2018-09-12T00:26:04.961Z,1.70
2018-09-12T00:28:32.515Z,1.40
2018-09-12T00:31:00.078Z,1.83
2018-09-12T00:33:27.634Z,1.73
2018-09-12T00:35:55.222Z,1.70
2018-09-12T00:38:22.828Z,1.60
2018-09-12T00:40:50.362Z,1.27
2018-09-12T00:43:18.146Z,1.60
2018-09-12T00:45:46.642Z,1.77
2018-09-12T00:48:16.723Z,1.87
2018-09-12T00:50:44.826Z,1.30
2018-09-12T00:53:12.726Z,1.40
2018-09-12T00:55:41.347Z,1.60
2018-09-12T00:58:09.279Z,1.57
2018-09-12T01:00:37.148Z,1.60
2018-09-12T01:03:05.506Z,1.53
2018-09-12T01:05:33.568Z,1.47
2018-09-12T01:08:01.900Z,1.67
2018-09-12T01:10:29.849Z,1.33
2018-09-12T01:12:58.122Z,1.73
2018-09-12T01:15:28.098Z,2.10
2018-09-12T01:17:56.381Z,1.70
2018-09-12T01:20:24.183Z,1.77
2018-09-12T01:22:52.129Z,1.70
2018-09-12T01:25:19.980Z,1.73
2018-09-12T01:27:51.851Z,1.63
2018-09-12T01:30:23.502Z,1.80
2018-09-12T01:32:51.994Z,1.40
2018-09-12T01:35:21.150Z,1.70
2018-09-12T01:37:50.165Z,1.57
2018-09-12T01:40:18.689Z,1.50
2018-09-12T01:42:47.929Z,1.40
2018-09-12T01:45:18.173Z,1.70
2018-09-12T01:47:47.021Z,1.83
2018-09-12T01:50:15.314Z,1.70
2018-09-12T01:52:43.688Z,1.57
2018-09-12T01:55:12.026Z,1.40
2018-09-12T01:57:40.002Z,2.30
2018-09-12T02:00:12.106Z,1.47
2018-09-12T02:02:39.943Z,1.20
2018-09-12T02:05:07.978Z,1.40
2018-09-12T02:07:36.772Z,1.60
2018-09-12T02:10:05.961Z,1.80
2018-09-12T02:12:34.993Z,1.87
2018-09-12T02:15:03.534Z,2.07
2018-09-12T02:17:31.799Z,1.93
2018-09-12T02:20:00.678Z,1.90
2018-09-12T02:22:29.503Z,1.37
2018-09-12T02:24:57.097Z,2.20
2018-09-12T02:27:24.619Z,1.87
2018-09-12T02:29:52.145Z,1.90
2018-09-12T02:32:19.658Z,1.83
2018-09-12T02:34:47.230Z,2.00
2018-09-12T02:37:14.786Z,1.90
2018-09-12T02:39:42.349Z,1.60
2018-09-12T02:42:09.916Z,2.20
2018-09-12T02:44:37.461Z,1.53
2018-09-12T02:47:09.279Z,2.30
2018-09-12T02:49:36.848Z,1.93
2018-09-12T02:52:04.380Z,2.07
2018-09-12T02:54:31.967Z,2.43
2018-09-12T02:56:59.598Z,2.10
2018-09-12T02:59:27.222Z,1.90
2018-09-12T03:01:54.795Z,1.70
2018-09-12T03:04:33.195Z,1.57
2018-09-12T03:07:00.967Z,2.90
2018-09-12T03:09:28.749Z,2.00
2018-09-12T03:11:56.261Z,1.70
2018-09-12T03:14:23.865Z,2.53
2018-09-12T03:16:51.673Z,2.20
2018-09-12T03:19:20.466Z,2.30
2018-09-12T03:21:50.050Z,1.20
2018-09-12T03:24:18.352Z,2.27
2018-09-12T03:26:46.148Z,2.53
2018-09-12T03:29:14.799Z,1.70
2018-09-12T03:31:43.572Z,1.93
2018-09-12T03:34:13.058Z,2.67
2018-09-12T03:36:41.095Z,2.13
2018-09-12T03:39:11.158Z,1.80
2018-09-12T03:41:39.976Z,2.00
2018-09-12T03:44:07.567Z,2.10
2018-09-12T03:46:35.163Z,2.43
2018-09-12T03:49:03.640Z,1.70
2018-09-12T03:51:32.051Z,1.93
2018-09-12T03:54:00.647Z,1.87
2018-09-12T03:56:28.611Z,2.77
2018-09-12T03:58:57.435Z,2.00
2018-09-12T04:01:26.326Z,2.50
2018-09-12T04:03:54.790Z,2.20
2018-09-12T04:06:22.893Z,4.03
2018-09-12T04:08:50.782Z,2.70
2018-09-12T04:11:19.121Z,2.17
2018-09-12T04:13:48.102Z,2.37
2018-09-12T04:16:16.072Z,3.50
2018-09-12T04:18:44.023Z,2.40
2018-09-12T04:21:11.930Z,3.17
2018-09-12T04:23:41.381Z,3.20
2018-09-12T04:26:09.233Z,4.50
2018-09-12T04:28:37.030Z,3.30
2018-09-12T04:31:04.735Z,5.00
2018-09-12T04:33:32.423Z,4.00
2018-09-12T04:36:01.447Z,3.40
2018-09-12T04:38:29.407Z,4.33
2018-09-12T04:40:57.333Z,3.53
2018-09-12T04:43:25.382Z,3.27
2018-09-12T04:45:53.236Z,3.50
2018-09-12T04:48:21.343Z,3.53
2018-09-12T04:50:49.268Z,3.60
2018-09-12T04:53:17.471Z,3.53
2018-09-12T04:55:46.234Z,3.77
2018-09-12T04:58:15.085Z,3.53
2018-09-12T05:00:43.586Z,4.73
2018-09-12T05:03:12.225Z,4.70
2018-09-12T05:05:40.750Z,4.70
2018-09-12T05:08:09.586Z,5.50
2018-09-12T05:10:37.508Z,5.60
2018-09-12T05:13:05.922Z,5.47
2018-09-12T05:15:34.618Z,5.23
2018-09-12T05:18:02.462Z,6.53
2018-09-12T05:20:30.346Z,6.83
2018-09-12T05:22:57.968Z,6.80
2018-09-12T05:25:25.532Z,6.60
2018-09-12T05:27:53.093Z,6.90
2018-09-12T05:30:20.685Z,7.50
2018-09-12T05:32:48.326Z,8.20
2018-09-12T05:35:15.991Z,6.50
2018-09-12T05:37:43.744Z,8.60
2018-09-12T05:40:11.725Z,8.43
2018-09-12T05:42:39.299Z,8.60
2018-09-12T05:45:06.952Z,9.67
2018-09-12T05:47:34.726Z,9.27
2018-09-12T05:50:02.437Z,9.53
2018-09-12T05:52:30.023Z,8.90
2018-09-12T05:54:57.606Z,9.73
2018-09-12T05:57:25.180Z,10.07
2018-09-12T05:59:52.744Z,9.30
2018-09-12T06:02:20.342Z,8.10
2018-09-12T06:04:48.078Z,8.67
2018-09-12T06:07:16.161Z,7.97
2018-09-12T06:09:43.682Z,8.30
2018-09-12T06:12:11.457Z,8.40
2018-09-12T06:14:39.454Z,7.50
2018-09-12T06:17:08.365Z,9.03
2018-09-12T06:19:36.786Z,7.70
2018-09-12T06:22:04.660Z,6.83
2018-09-12T06:24:32.593Z,6.73
2018-09-12T06:27:02.108Z,7.23
2018-09-12T06:29:29.889Z,7.63
2018-09-12T06:31:57.770Z,5.73
2018-09-12T06:34:25.679Z,6.07
2018-09-12T06:36:54.288Z,6.77
2018-09-12T06:39:22.581Z,5.37
2018-09-12T06:44:25.060Z,7.00
2018-09-12T06:46:53.091Z,6.53
2018-09-12T06:49:21.539Z,6.60
2018-09-12T06:51:49.651Z,5.87
2018-09-12T06:54:17.544Z,5.33
2018-09-12T06:56:46.537Z,5.67
2018-09-12T06:59:15.066Z,6.20
2018-09-12T07:01:43.606Z,5.47
2018-09-12T07:04:11.480Z,5.40
2018-09-12T07:06:39.341Z,5.70
2018-09-12T07:09:07.757Z,6.37
2018-09-12T07:11:35.407Z,5.40
2018-09-12T07:14:03.853Z,5.30
2018-09-12T07:16:34.287Z,5.10
2018-09-12T07:19:02.518Z,5.57
2018-09-12T07:21:33.974Z,5.67
2018-09-12T07:24:01.876Z,5.50
2018-09-12T07:26:29.520Z,5.27
2018-09-12T07:28:58.100Z,4.83
2018-09-12T07:31:25.991Z,4.93
2018-09-12T07:33:55.018Z,5.50
2018-09-12T07:36:22.827Z,5.30
2018-09-12T07:38:50.651Z,6.00
2018-09-12T07:41:18.618Z,5.07
2018-09-12T07:43:46.687Z,5.13
2018-09-12T07:46:16.279Z,5.07
2018-09-12T07:48:43.973Z,4.90
2018-09-12T07:51:11.576Z,3.40
2018-09-12T07:53:39.596Z,3.57
2018-09-12T07:56:07.948Z,3.70
2018-09-12T07:58:35.982Z,1.10
2018-09-12T08:01:04.663Z,3.97
2018-09-12T08:03:32.291Z,3.70
2018-09-12T08:05:59.879Z,3.50
2018-09-12T08:08:27.493Z,4.00
2018-09-12T08:10:55.091Z,3.50
2018-09-12T08:13:22.781Z,4.07
2018-09-12T08:15:50.393Z,2.43
2018-09-12T08:18:18.012Z,3.17
2018-09-12T08:20:45.666Z,3.37
2018-09-12T08:23:13.247Z,3.40
2018-09-12T08:25:41.044Z,3.23
2018-09-12T08:28:08.689Z,2.93
2018-09-12T08:30:36.321Z,2.77
2018-09-12T08:33:03.905Z,2.60
2018-09-12T08:35:31.463Z,2.70
2018-09-12T08:37:58.983Z,3.10
2018-09-12T08:40:26.544Z,2.97
2018-09-12T08:42:54.075Z,2.30
2018-09-12T08:45:21.681Z,2.40
2018-09-12T08:47:49.879Z,2.10
2018-09-12T08:50:17.550Z,2.93
2018-09-12T08:52:45.139Z,2.63
2018-09-12T08:55:12.691Z,2.40
2018-09-12T08:57:40.323Z,2.60
2018-09-12T09:00:08.201Z,1.83
2018-09-12T09:02:36.152Z,2.43
2018-09-12T09:05:03.719Z,2.10
2018-09-12T09:07:31.506Z,3.47
2018-09-12T09:09:59.035Z,2.93
2018-09-12T09:12:26.616Z,2.70
2018-09-12T09:14:55.662Z,2.53
2018-09-12T09:17:24.393Z,2.37
2018-09-12T09:19:52.207Z,2.50
2018-09-12T09:22:21.368Z,2.00
2018-09-12T09:24:49.862Z,1.60
2018-09-12T09:27:17.721Z,2.40
2018-09-12T09:29:45.719Z,1.70
2018-09-12T09:32:13.330Z,2.77
2018-09-12T09:34:40.895Z,3.00
2018-09-12T09:37:08.480Z,2.63
2018-09-12T09:39:36.028Z,3.27
2018-09-12T09:42:03.574Z,2.77
2018-09-12T09:44:31.221Z,2.10
2018-09-12T09:46:58.755Z,2.80
2018-09-12T09:49:26.307Z,2.30
2018-09-12T09:51:53.878Z,2.53
2018-09-12T09:54:21.456Z,3.40
2018-09-12T09:56:48.979Z,2.53
2018-09-12T09:59:16.529Z,2.43
2018-09-12T10:01:49.842Z,3.40
2018-09-12T10:04:23.914Z,2.23
2018-09-12T10:06:57.188Z,2.10
2018-09-12T10:09:31.767Z,2.17
2018-09-12T10:11:59.709Z,1.93
2018-09-12T10:14:27.647Z,2.20
2018-09-12T10:16:55.279Z,1.83
2018-09-12T10:19:23.123Z,2.20
2018-09-12T10:21:51.107Z,2.60
2018-09-12T10:24:18.995Z,1.83
2018-09-12T10:26:47.910Z,2.30
2018-09-12T10:29:16.576Z,2.00
2018-09-12T10:31:44.375Z,2.87
2018-09-12T10:34:12.770Z,1.77
2018-09-12T10:36:41.658Z,1.80
2018-09-12T10:39:11.259Z,1.90
2018-09-12T10:41:39.508Z,1.63
2018-09-12T10:44:07.407Z,1.40
2018-09-12T10:46:36.864Z,1.60
2018-09-12T10:49:06.221Z,1.60
2018-09-12T10:51:34.348Z,1.50
2018-09-12T10:54:02.056Z,1.27
2018-09-12T10:56:29.991Z,1.07
2018-09-12T10:58:58.658Z,1.70
2018-09-12T11:01:26.925Z,1.50
2018-09-12T11:03:54.921Z,1.37
2018-09-12T11:06:23.486Z,1.10
2018-09-12T11:08:51.476Z,1.50
2018-09-12T11:11:20.287Z,1.60
2018-09-12T11:13:48.572Z,1.77
2018-09-12T11:16:16.955Z,1.10
2018-09-12T11:18:44.901Z,2.03
2018-09-12T11:21:13.731Z,4.10
2018-09-12T11:23:41.627Z,1.17
2018-09-12T11:26:10.155Z,1.43
2018-09-12T11:28:38.694Z,1.20
2018-09-12T11:31:07.244Z,1.30
2018-09-12T11:33:35.222Z,2.60
2018-09-12T11:36:03.644Z,1.03
2018-09-12T11:38:31.480Z,1.30
2018-09-12T11:40:59.510Z,1.40
2018-09-12T11:43:27.319Z,1.30
2018-09-12T11:45:55.262Z,1.17
2018-09-12T11:48:24.301Z,2.20
2018-09-12T11:50:52.110Z,1.30
2018-09-12T11:53:19.918Z,1.60
2018-09-12T11:55:47.731Z,1.23
2018-09-12T11:58:15.905Z,1.13
2018-09-12T12:00:43.716Z,1.20
2018-09-12T12:03:11.415Z,1.33
2018-09-12T12:05:39.097Z,1.10
2018-09-12T12:08:07.493Z,1.40
2018-09-12T12:10:35.278Z,1.00
2018-09-12T12:13:03.113Z,1.00
2018-09-12T12:15:30.905Z,1.03
2018-09-12T12:17:58.713Z,1.20
2018-09-12T12:20:26.694Z,1.10
2018-09-12T12:22:55.011Z,1.10
2018-09-12T12:25:22.854Z,1.17
2018-09-12T12:27:51.804Z,1.60
2018-09-12T12:30:20.454Z,0.67
2018-09-12T12:32:48.326Z,1.47
2018-09-12T12:35:16.789Z,0.93
2018-09-12T12:37:44.979Z,1.73
2018-09-12T12:40:13.000Z,1.17
2018-09-12T12:42:41.051Z,1.50
2018-09-12T12:45:09.510Z,1.73
2018-09-12T12:47:37.413Z,1.00
2018-09-12T12:50:05.420Z,1.70
2018-09-12T12:52:34.055Z,0.90
2018-09-12T12:55:02.387Z,0.70
2018-09-12T12:57:30.944Z,0.90
2018-09-12T13:00:00.191Z,0.67
2018-09-12T13:02:28.439Z,0.90
2018-09-12T13:04:56.414Z,0.70
2018-09-12T13:07:24.377Z,1.07
2018-09-12T13:09:52.231Z,0.90
2018-09-12T13:12:20.036Z,0.67
2018-09-12T13:14:48.053Z,0.90
2018-09-12T13:17:15.866Z,0.70
2018-09-12T13:19:43.562Z,1.17
2018-09-12T13:22:12.247Z,1.00
2018-09-12T13:24:40.185Z,0.97
2018-09-12T13:27:09.171Z,1.50
2018-09-12T13:29:37.795Z,0.93
2018-09-12T13:32:05.892Z,1.43
2018-09-12T13:34:33.670Z,1.13
2018-09-12T13:37:02.807Z,1.10
2018-09-12T13:39:30.699Z,1.00
2018-09-12T13:41:58.718Z,0.90
2018-09-12T13:44:26.798Z,0.90
2018-09-12T13:46:55.089Z,0.80
2018-09-12T13:49:22.889Z,0.83
2018-09-12T13:51:51.311Z,0.90
2018-09-12T13:54:19.488Z,0.90
2018-09-12T13:56:47.746Z,0.90
2018-09-12T13:59:16.122Z,0.60
2018-09-12T14:01:44.575Z,1.23
2018-09-12T14:04:13.061Z,0.80
2018-09-12T14:06:41.504Z,1.10
2018-09-12T14:09:10.771Z,1.00
2018-09-12T14:11:42.964Z,1.13
2018-09-12T14:14:11.374Z,0.60
2018-09-12T14:16:39.326Z,0.80
2018-09-12T14:19:07.926Z,0.97
2018-09-12T14:21:37.078Z,1.00
2018-09-12T14:24:04.642Z,0.90
2018-09-12T14:26:32.184Z,0.90
2018-09-12T14:28:59.737Z,1.17
2018-09-12T14:31:27.267Z,2.77
2018-09-12T14:33:54.926Z,0.67
2018-09-12T14:36:22.500Z,0.97
2018-09-12T14:38:50.271Z,1.70
2018-09-12T14:41:17.853Z,1.00
2018-09-12T14:43:45.411Z,1.07
2018-09-12T14:46:13.120Z,0.97
2018-09-12T14:48:40.695Z,2.17
2018-09-12T14:51:08.249Z,1.00
2018-09-12T14:53:35.829Z,1.00
2018-09-12T14:56:03.329Z,0.83
2018-09-12T14:58:30.861Z,0.93
2018-09-12T15:00:58.435Z,0.97
2018-09-12T15:03:27.123Z,0.97
2018-09-12T15:05:55.007Z,1.00
2018-09-12T15:08:22.654Z,0.93
2018-09-12T15:10:50.482Z,1.60
2018-09-12T15:13:19.673Z,1.40
2018-09-12T15:15:47.867Z,1.50
2018-09-12T15:18:15.938Z,1.03
2018-09-12T15:20:44.435Z,0.73
2018-09-12T15:23:13.732Z,1.00
2018-09-12T15:25:42.957Z,1.03
2018-09-12T15:28:11.557Z,2.00
2018-09-12T15:30:39.385Z,1.63
2018-09-12T15:33:07.131Z,0.77
2018-09-12T15:35:36.070Z,1.23
2018-09-12T15:38:04.427Z,1.03
2018-09-12T15:40:32.042Z,1.10
2018-09-12T15:42:59.589Z,1.07
2018-09-12T15:45:27.165Z,1.33
2018-09-12T15:47:55.016Z,1.20
2018-09-12T15:50:24.531Z,1.07
2018-09-12T15:52:52.589Z,1.23
2018-09-12T15:55:20.472Z,1.00
2018-09-12T15:57:48.390Z,1.23
2018-09-12T16:00:16.386Z,1.67
2018-09-12T16:02:44.292Z,1.03
2018-09-12T16:05:12.222Z,0.93
2018-09-12T16:07:40.365Z,1.13
2018-09-12T16:10:08.916Z,1.97
2018-09-12T16:12:36.920Z,0.93
2018-09-12T16:15:05.512Z,0.93
2018-09-12T16:17:33.800Z,1.10
2018-09-12T16:20:01.711Z,1.40
2018-09-12T16:22:29.562Z,1.10
2018-09-12T16:24:57.376Z,1.50
2018-09-12T16:27:25.923Z,1.00
2018-09-12T16:29:53.755Z,1.27
2018-09-12T16:32:21.488Z,1.20
2018-09-12T16:34:49.943Z,1.30
2018-09-12T16:37:17.882Z,0.97
2018-09-12T16:39:46.292Z,1.30
2018-09-12T16:42:13.992Z,1.40
2018-09-12T16:44:42.471Z,1.30
2018-09-12T16:47:10.369Z,1.40
2018-09-12T16:49:38.219Z,1.17
2018-09-12T16:52:06.011Z,1.33
2018-09-12T16:54:34.538Z,1.20
2018-09-12T16:57:02.575Z,1.40
2018-09-12T16:59:30.734Z,1.13
2018-09-12T17:01:58.803Z,1.30
2018-09-12T17:04:26.886Z,1.40
2018-09-12T17:06:55.704Z,1.50
2018-09-12T17:09:23.720Z,1.20
2018-09-12T17:11:52.275Z,1.83
2018-09-12T17:14:21.688Z,1.23
2018-09-12T17:16:49.627Z,1.30
2018-09-12T17:19:17.438Z,1.37
2018-09-12T17:21:46.188Z,1.20
2018-09-12T17:24:15.199Z,1.60
2018-09-12T17:26:43.198Z,1.17
2018-09-12T17:29:10.920Z,1.20
2018-09-12T17:31:38.716Z,1.50
2018-09-12T17:34:07.405Z,1.70
2018-09-12T17:36:35.315Z,1.70
2018-09-12T17:39:03.403Z,1.60
2018-09-12T17:41:31.244Z,1.57
2018-09-12T17:43:59.328Z,1.20
2018-09-12T17:46:27.954Z,2.03
2018-09-12T17:48:56.181Z,1.50
2018-09-12T17:51:24.175Z,1.30
2018-09-12T17:53:53.578Z,1.50
2018-09-12T17:56:21.574Z,1.83
2018-09-12T17:58:50.387Z,1.57
2018-09-12T18:01:18.245Z,1.40
2018-09-12T18:03:46.142Z,1.60
2018-09-12T18:06:14.550Z,1.27
2018-09-12T18:08:42.977Z,1.30
2018-09-12T18:11:10.898Z,4.43
2018-09-12T18:13:38.727Z,2.30
2018-09-12T18:16:06.682Z,2.00
2018-09-12T18:18:34.625Z,1.80
2018-09-12T18:21:02.626Z,2.00
2018-09-12T18:23:30.434Z,1.73
2018-09-12T18:25:58.145Z,1.20
2018-09-12T18:28:25.932Z,1.93
2018-09-12T18:30:53.918Z,2.03
2018-09-12T18:33:21.882Z,1.93
2018-09-12T18:35:49.722Z,2.10
2018-09-12T18:38:17.317Z,2.00
2018-09-12T18:40:46.013Z,1.53
2018-09-12T18:43:14.869Z,1.40
2018-09-12T18:48:17.165Z,2.07
2018-09-12T18:50:45.667Z,2.10
2018-09-12T18:53:14.643Z,2.37
2018-09-12T18:55:42.482Z,2.10
2018-09-12T18:58:10.202Z,2.60
2018-09-12T19:00:38.793Z,1.90
2018-09-12T19:03:06.808Z,2.20
2018-09-12T19:05:34.623Z,2.27
2018-09-12T19:08:02.381Z,2.40
2018-09-12T19:10:30.259Z,1.90
2018-09-12T19:12:58.359Z,1.53
2018-09-12T19:15:27.260Z,2.20
2018-09-12T19:17:55.159Z,1.70
2018-09-12T19:20:23.918Z,1.87
2018-09-12T19:22:52.296Z,2.30
2018-09-12T19:25:21.269Z,1.80
2018-09-12T19:27:49.267Z,2.60
2018-09-12T19:30:17.927Z,2.40
2018-09-12T19:32:45.791Z,2.20
2018-09-12T19:35:14.918Z,2.43
2018-09-12T19:37:42.574Z,2.90
2018-09-12T19:40:10.402Z,2.37
2018-09-12T19:42:39.010Z,1.93
2018-09-12T19:45:06.994Z,2.30
2018-09-12T19:47:35.496Z,2.30
2018-09-12T19:50:04.860Z,2.13
2018-09-12T19:52:33.618Z,2.37
2018-09-12T19:55:02.249Z,1.70
2018-09-12T19:57:30.069Z,2.00
2018-09-12T19:59:57.861Z,2.70
2018-09-12T20:02:30.324Z,2.37
2018-09-12T20:04:59.309Z,1.87
2018-09-12T20:07:27.647Z,1.83
2018-09-12T20:09:55.459Z,1.40
2018-09-12T20:12:23.690Z,2.10
2018-09-12T20:14:51.655Z,2.20
2018-09-12T20:17:19.423Z,1.67
2018-09-12T20:19:47.492Z,1.80
2018-09-12T20:22:15.372Z,1.80
2018-09-12T20:24:43.774Z,2.00
2018-09-12T20:27:12.387Z,2.20
2018-09-12T20:29:40.915Z,2.23
2018-09-12T20:32:09.513Z,1.90
2018-09-12T20:34:37.354Z,1.70
2018-09-12T20:37:05.804Z,1.80
2018-09-12T20:39:33.358Z,1.70
2018-09-12T20:42:01.010Z,1.73
2018-09-12T20:44:29.986Z,2.03
2018-09-12T20:46:57.721Z,1.93
2018-09-12T20:49:26.077Z,2.03
2018-09-12T20:51:55.053Z,2.00
2018-09-12T20:54:23.131Z,2.40
2018-09-12T20:56:51.749Z,1.93
2018-09-12T20:59:20.379Z,2.13
2018-09-12T21:01:48.206Z,1.90
2018-09-12T21:04:16.146Z,2.57
2018-09-12T21:06:43.826Z,3.80
2018-09-12T21:09:12.842Z,1.90
2018-09-12T21:11:41.479Z,2.60
2018-09-12T21:14:09.880Z,2.27
2018-09-12T21:16:37.513Z,2.10
2018-09-12T21:19:05.430Z,2.63
2018-09-12T21:21:33.150Z,2.40
2018-09-12T21:24:00.793Z,2.50
2018-09-12T21:26:28.507Z,1.73
2018-09-12T21:28:56.572Z,2.60
2018-09-12T21:31:25.308Z,2.80
2018-09-12T21:33:53.290Z,2.50
2018-09-12T21:36:21.298Z,2.23
2018-09-12T21:38:48.997Z,2.10
2018-09-12T21:41:17.483Z,2.47
2018-09-12T21:43:45.850Z,2.13
2018-09-12T21:46:14.027Z,2.50
2018-09-12T21:48:42.846Z,2.50
2018-09-12T21:51:11.182Z,2.30
2018-09-12T21:53:38.969Z,2.20
2018-09-12T21:56:08.142Z,2.00
2018-09-12T21:58:36.585Z,2.10
2018-09-12T22:01:06.423Z,2.20
2018-09-12T22:03:35.017Z,3.07
2018-09-12T22:06:03.002Z,2.03
2018-09-12T22:08:31.561Z,2.80
2018-09-12T22:10:59.461Z,2.00
2018-09-12T22:13:27.514Z,1.83
2018-09-12T22:15:56.118Z,5.00
2018-09-12T22:18:24.718Z,2.10
2018-09-12T22:20:53.214Z,2.83
2018-09-12T22:23:21.265Z,2.33
2018-09-12T22:25:50.598Z,2.07
2018-09-12T22:28:19.053Z,2.30
2018-09-12T22:30:46.987Z,2.20
2018-09-12T22:33:14.863Z,2.37
2018-09-12T22:35:42.613Z,2.20
2018-09-12T22:38:10.775Z,2.93
2018-09-12T22:40:39.105Z,2.53
2018-09-12T22:43:07.378Z,2.80
2018-09-12T22:45:35.192Z,2.60
2018-09-12T22:48:03.604Z,2.20
2018-09-12T22:50:32.100Z,2.40
2018-09-12T22:53:01.671Z,2.10
2018-09-12T22:55:29.404Z,1.90
2018-09-12T22:57:58.632Z,2.10
2018-09-12T23:00:27.218Z,1.87
2018-09-12T23:02:55.154Z,2.80
2018-09-12T23:05:23.295Z,2.60
2018-09-12T23:07:51.090Z,4.40
2018-09-12T23:10:19.748Z,2.60
2018-09-12T23:12:48.721Z,2.37
2018-09-12T23:15:16.973Z,2.27
2018-09-12T23:17:45.881Z,2.23
2018-09-12T23:20:13.893Z,2.27
2018-09-12T23:22:42.190Z,3.57
2018-09-12T23:25:10.793Z,2.47
2018-09-12T23:27:39.214Z,2.23
2018-09-12T23:30:07.285Z,1.97
2018-09-12T23:32:35.259Z,2.60
2018-09-12T23:35:03.292Z,2.03
2018-09-12T23:37:31.537Z,2.13
2018-09-12T23:40:00.041Z,2.60
2018-09-12T23:42:28.070Z,2.50
2018-09-12T23:44:55.985Z,2.57
2018-09-12T23:47:24.675Z,2.30
2018-09-12T23:49:53.566Z,2.40
2018-09-12T23:52:22.018Z,3.57
2018-09-12T23:54:50.630Z,2.87
2018-09-12T23:57:19.179Z,3.80
2018-09-12T23:59:47.483Z,2.70
